CheckWX is a tool to help pilots better visualize weather data.  It is not intended as a substitute for an official pre-flight weather briefing.

07:12:47 UTC

CYQY TAF
Sydney / J.A. Douglas McCurdy Airport
Sydney, Canada
TAF CYQY 260538Z 2606/2618 VRB03KT P6SM FEW050 FEW240 FM261200 18005KT P6SM BKN080 BECMG 2614/2616 14008KT RMK NXT FCST BY 261200Z

May-26@
06:00 UTC

May-26 @ 06:00 UTC

May-26@
12:00 UTC

May-26 @ 12:00 UTC

TAF CYQY 260538Z 2606/2618 VRB03KT P6SM FEW050 FEW240
Wind
  • Variable at 3 KTS
Cloud Levels
  • Few at 5,000' AGL
  • Few at 24,000' AGL

May-26@
12:00 UTC

May-26 @ 12:00 UTC

May-26@
14:00 UTC

May-26 @ 14:00 UTC

FM261200 18005KT P6SM BKN080

From

From Standard forecast or significant change

Wind
  • 180° at 5 KTS
Cloud Levels
  • Broken at 8,000' AGL

May-26@
14:00 UTC

May-26 @ 14:00 UTC

May-26@
18:00 UTC

May-26 @ 18:00 UTC

BECMG 2614/2616 14008KT RMK NXT FCST BY 261200Z

Becoming

Becoming Conditions expected by Sun, May 26, 2019 @ 16:00 UTC

Wind
  • 140° at 8 KTS
Cloud Levels
  • Broken at 8,000' AGL